Time;durP1;ratioP1;P1;durP2;ratioP2;P2;SDS_P1;SDS_P2;PMS_P1;PMS_P2;Temp;Humidity;BMP_temperature;BMP_pressure;BME280_temperature;BME280_humidity;BME280_pressure;Samples;Min_cycle;Max_cycle;Signal;HPM_P1;HPM_P2
2021/06/24 00:02:36;;;;;;;8.17;6.83;;;;;;;21.83;60.76;98096.06;8247648;28;20206;-64
2021/06/24 00:06:39;;;;;;;7.67;6.63;;;;;;;21.85;60.77;98101.22;8248797;28;20410;-65
2021/06/24 00:10:43;;;;;;;8.13;6.87;;;;;;;21.80;60.65;98113.97;8252129;28;20253;-64
2021/06/24 00:14:47;;;;;;;10.27;7.33;;;;;;;21.81;60.42;98131.47;8255289;28;20385;-65
2021/06/24 00:18:50;;;;;;;8.20;7.03;;;;;;;21.82;60.69;98135.78;8254889;28;20206;-64
2021/06/24 00:22:53;;;;;;;10.03;6.80;;;;;;;21.81;60.65;98139.38;8253960;28;20208;-65
2021/06/24 00:26:56;;;;;;;8.07;6.43;;;;;;;21.74;60.58;98146.13;8254004;28;20211;-65
2021/06/24 00:31:00;;;;;;;7.73;7.03;;;;;;;21.78;61.07;98145.75;8253906;28;20206;-65
2021/06/24 00:35:04;;;;;;;8.20;7.10;;;;;;;21.79;61.51;98146.56;8254039;28;20468;-64
2021/06/24 00:39:07;;;;;;;9.53;7.07;;;;;;;21.80;61.44;98143.81;8254074;28;20214;-65
2021/06/24 00:43:11;;;;;;;8.93;6.73;;;;;;;21.84;61.63;98136.47;8253530;28;20209;-65
2021/06/24 00:47:15;;;;;;;8.30;7.20;;;;;;;21.77;62.22;98137.97;8253341;28;20471;-64
2021/06/24 00:51:18;;;;;;;10.37;7.73;;;;;;;21.77;62.26;98133.53;8253548;28;20202;-64
2021/06/24 00:55:39;;;;;;;12.23;7.57;;;;;;;21.59;62.22;98120.16;8252983;28;20377;-64
2021/06/24 00:59:42;;;;;;;8.50;7.10;;;;;;;21.54;62.66;98109.19;8253403;28;20203;-65
2021/06/24 01:03:46;;;;;;;11.50;7.27;;;;;;;21.54;62.82;98101.28;8253045;28;20218;-65
2021/06/24 01:07:49;;;;;;;9.00;7.80;;;;;;;21.47;62.89;98082.53;8252260;28;20233;-65
2021/06/24 01:11:53;;;;;;;7.90;7.10;;;;;;;21.36;63.93;98061.56;8252730;28;20542;-65
2021/06/24 01:15:57;;;;;;;12.87;7.10;;;;;;;21.18;64.15;98037.63;8252674;28;20230;-65
2021/06/24 01:20:01;;;;;;;12.03;8.57;;;;;;;20.94;64.94;98011.63;8252080;28;20212;-65
2021/06/24 01:24:06;;;;;;;11.30;8.90;;;;;;;20.79;65.94;97984.84;8252223;28;20217;-65
2021/06/24 01:28:11;;;;;;;8.93;8.03;;;;;;;20.73;65.67;97959.03;8252053;28;20212;-65
2021/06/24 01:32:13;;;;;;;10.07;8.43;;;;;;;20.56;66.45;97936.81;8251792;28;20210;-65
2021/06/24 01:36:16;;;;;;;11.57;8.23;;;;;;;20.54;66.94;97932.63;8251826;28;20229;-64
2021/06/24 01:40:20;;;;;;;9.47;8.27;;;;;;;20.50;66.90;97955.72;8251817;28;20202;-64
2021/06/24 01:44:32;;;;;;;15.03;8.40;;;;;;;20.75;65.62;97982.59;8251600;28;20277;-65
2021/06/24 01:48:35;;;;;;;9.37;8.10;;;;;;;20.79;66.18;97997.16;8251539;28;20218;-65
2021/06/24 01:52:38;;;;;;;12.27;8.33;;;;;;;20.96;65.75;98014.97;8251499;28;20208;-65
2021/06/24 01:56:42;;;;;;;9.63;8.23;;;;;;;21.00;64.97;98026.91;8251083;28;20226;-65
2021/06/24 02:00:45;;;;;;;10.73;8.63;;;;;;;21.02;65.07;98034.69;8251182;28;20227;-65
2021/06/24 02:04:48;;;;;;;10.60;8.63;;;;;;;21.07;64.74;98033.28;8251406;28;20210;-65
2021/06/24 02:08:51;;;;;;;10.27;7.93;;;;;;;21.02;64.30;98024.97;8250838;28;20225;-65
2021/06/24 02:12:55;;;;;;;9.10;8.20;;;;;;;21.00;65.26;98020.78;8251007;28;20433;-65
2021/06/24 02:16:58;;;;;;;10.23;8.67;;;;;;;21.03;64.93;98021.38;8250629;28;20569;-64
2021/06/24 02:21:00;;;;;;;10.07;8.40;;;;;;;21.07;65.22;98021.94;8250920;28;20227;-64
2021/06/24 02:25:04;;;;;;;9.30;8.10;;;;;;;21.05;64.86;98019.44;8250763;28;20489;-64
2021/06/24 02:29:08;;;;;;;10.93;8.87;;;;;;;21.09;65.21;98023.50;8250498;28;20220;-65
2021/06/24 02:33:12;;;;;;;10.10;8.87;;;;;;;21.11;65.27;98027.78;8250303;28;20297;-65
2021/06/24 02:37:15;;;;;;;12.37;8.87;;;;;;;20.98;65.35;98020.94;8249867;28;20227;-65
2021/06/24 02:41:17;;;;;;;10.70;8.53;;;;;;;20.81;65.58;98022.41;8250303;28;20208;-65
2021/06/24 02:45:22;;;;;;;10.87;9.37;;;;;;;20.93;65.68;98020.50;8247257;28;20202;-65
2021/06/24 02:49:24;;;;;;;10.43;8.83;;;;;;;20.98;65.54;98020.94;8250387;28;20203;-65
2021/06/24 02:53:27;;;;;;;13.57;9.20;;;;;;;20.93;65.72;98020.50;8250155;28;20384;-64
2021/06/24 02:57:30;;;;;;;10.50;9.37;;;;;;;20.85;65.51;98022.97;8250137;28;20294;-64
2021/06/24 03:01:35;;;;;;;13.27;9.63;;;;;;;20.95;64.89;98013.31;8250276;28;20223;-65
2021/06/24 03:05:38;;;;;;;12.90;9.03;;;;;;;20.96;65.42;98011.50;8249739;28;20244;-65
2021/06/24 03:09:40;;;;;;;11.70;10.10;;;;;;;20.99;65.12;98016.50;8249301;28;20234;-65
2021/06/24 03:13:44;;;;;;;10.80;9.70;;;;;;;20.86;65.14;98017.53;8249472;28;20261;-65
2021/06/24 03:17:48;;;;;;;11.10;9.83;;;;;;;20.88;65.21;98009.53;8249480;28;20202;-65
2021/06/24 03:21:50;;;;;;;13.50;10.00;;;;;;;20.82;65.40;98007.44;8249662;28;20208;-65
2021/06/24 03:25:55;;;;;;;14.73;10.70;;;;;;;20.79;65.36;98013.81;8249252;28;20410;-65
2021/06/24 03:29:57;;;;;;;12.10;10.90;;;;;;;20.85;65.39;98018.53;8249542;28;20209;-65
2021/06/24 03:34:02;;;;;;;13.47;10.70;;;;;;;20.94;65.58;98026.59;8249451;28;20215;-65
2021/06/24 03:38:05;;;;;;;11.47;10.27;;;;;;;20.95;65.57;98023.84;8249151;28;20213;-65
2021/06/24 03:42:08;;;;;;;12.33;9.77;;;;;;;20.98;65.70;98023.56;8248838;28;20209;-65
2021/06/24 03:46:11;;;;;;;11.37;10.20;;;;;;;20.93;66.00;98022.31;8253535;28;20390;-65
2021/06/24 03:50:16;;;;;;;10.53;9.37;;;;;;;20.97;65.60;98036.88;8255308;28;20518;-65
2021/06/24 03:54:19;;;;;;;11.53;10.33;;;;;;;20.89;65.54;98034.91;8255065;28;20226;-65
2021/06/24 03:58:22;;;;;;;12.17;10.43;;;;;;;20.94;65.80;98031.84;8254854;28;20231;-65
2021/06/24 04:02:24;;;;;;;12.27;10.93;;;;;;;20.69;66.31;98033.94;8254988;28;20219;-65
2021/06/24 04:06:46;;;;;;;12.27;11.00;;;;;;;20.73;66.66;98034.53;8254855;28;20273;-65
2021/06/24 04:10:49;;;;;;;12.30;10.90;;;;;;;20.84;66.11;98043.16;8254592;28;20229;-65
2021/06/24 04:14:51;;;;;;;13.37;11.97;;;;;;;20.81;66.68;98045.22;8254580;28;20244;-65
2021/06/24 04:18:54;;;;;;;13.70;11.93;;;;;;;20.79;66.67;98048.00;8254632;28;20288;-64
2021/06/24 04:22:58;;;;;;;14.93;12.13;;;;;;;20.66;66.03;98037.69;8254876;28;20258;-65
2021/06/24 04:27:01;;;;;;;12.80;11.50;;;;;;;20.65;66.77;98043.06;8254272;28;20310;-65
2021/06/24 04:31:04;;;;;;;13.60;11.53;;;;;;;20.75;66.86;98040.50;8254597;28;20206;-65
2021/06/24 04:35:08;;;;;;;12.27;10.97;;;;;;;20.83;66.81;98038.06;8254789;28;20416;-65
2021/06/24 04:39:13;;;;;;;14.40;12.33;;;;;;;20.73;66.98;98037.97;8254847;28;20206;-62
2021/06/24 04:43:16;;;;;;;14.30;10.67;;;;;;;20.85;66.61;98039.59;8254807;28;20213;-62
2021/06/24 04:47:19;;;;;;;16.27;11.87;;;;;;;20.70;66.93;98030.38;8254597;28;20506;-62
2021/06/24 04:51:21;;;;;;;13.13;11.83;;;;;;;20.69;66.86;98021.66;8255020;28;20552;-62
2021/06/24 04:55:26;;;;;;;14.07;11.53;;;;;;;20.66;67.13;98021.06;8253322;28;20417;-62
2021/06/24 04:59:29;;;;;;;12.63;11.33;;;;;;;20.75;66.77;98022.06;8254362;28;20505;-62
2021/06/24 05:03:32;;;;;;;12.57;11.33;;;;;;;20.63;67.17;98019.50;8254044;28;20214;-62
2021/06/24 05:07:36;;;;;;;15.80;12.97;;;;;;;20.61;68.06;98021.44;8254057;28;20222;-62
2021/06/24 05:11:40;;;;;;;15.23;13.50;;;;;;;20.66;68.03;98021.06;8253103;28;20230;-63
2021/06/24 05:15:44;;;;;;;15.50;13.87;;;;;;;20.46;67.94;98023.53;8253013;28;20432;-63
2021/06/24 05:19:47;;;;;;;16.90;15.23;;;;;;;20.50;68.13;98024.13;8252654;28;20198;-62
2021/06/24 05:23:50;;;;;;;16.67;13.73;;;;;;;20.47;67.82;98019.94;8252353;28;20199;-63
2021/06/24 05:27:54;;;;;;;16.90;14.83;;;;;;;20.51;68.14;98023.16;8252748;28;20205;-63
2021/06/24 05:31:56;;;;;;;15.60;14.00;;;;;;;20.61;67.98;98029.34;8253255;28;20209;-63
2021/06/24 05:35:59;;;;;;;15.77;14.20;;;;;;;20.56;67.97;98034.13;8252482;28;20244;-62
2021/06/24 05:40:03;;;;;;;15.80;14.20;;;;;;;20.54;68.34;98029.94;8252780;28;20220;-63
2021/06/24 05:44:09;;;;;;;16.67;14.97;;;;;;;20.65;67.51;98033.38;8252671;28;20276;-63
2021/06/24 05:48:12;;;;;;;16.63;14.83;;;;;;;20.54;67.69;98043.09;8252521;28;20212;-63
2021/06/24 05:52:15;;;;;;;16.80;15.07;;;;;;;20.58;67.92;98041.88;8252815;28;20203;-63
2021/06/24 05:56:19;;;;;;;18.23;16.33;;;;;;;20.45;68.63;98039.47;8252416;28;20253;-64
2021/06/24 06:00:24;;;;;;;24.03;14.67;;;;;;;20.56;67.82;98036.78;8251871;28;20211;-63
2021/06/24 06:04:27;;;;;;;16.80;15.13;;;;;;;20.54;67.78;98041.28;8220149;29;20203;-63
2021/06/24 06:08:30;;;;;;;15.10;13.20;;;;;;;20.68;67.81;98027.03;8219721;28;20247;-63
2021/06/24 06:12:33;;;;;;;16.53;14.87;;;;;;;20.60;67.95;98018.94;8220008;29;20235;-63
2021/06/24 06:16:37;;;;;;;18.03;14.97;;;;;;;20.80;67.59;98014.63;8220422;29;20238;-63
2021/06/24 06:20:41;;;;;;;16.27;14.57;;;;;;;20.81;68.43;98021.53;8219921;29;20203;-64
2021/06/24 06:24:44;;;;;;;15.47;13.67;;;;;;;20.82;67.64;98000.34;8219538;29;20506;-63
2021/06/24 06:28:47;;;;;;;16.27;14.57;;;;;;;20.99;67.46;97992.81;8248361;28;20470;-64
2021/06/24 06:32:51;;;;;;;16.10;14.40;;;;;;;20.95;67.97;97991.41;8250838;28;20482;-63
2021/06/24 06:36:54;;;;;;;15.50;14.00;;;;;;;21.11;66.58;97999.63;8250394;28;20234;-64
2021/06/24 06:40:57;;;;;;;15.70;14.00;;;;;;;21.39;66.53;98008.59;8250358;28;20209;-64
2021/06/24 06:44:59;;;;;;;14.23;12.40;;;;;;;21.39;65.67;98019.13;8248005;28;20197;-64
2021/06/24 06:49:04;;;;;;;14.53;12.33;;;;;;;21.94;65.27;98017.84;8250599;28;20382;-64
2021/06/24 06:53:08;;;;;;;11.70;10.47;;;;;;;21.83;64.46;98010.91;8250343;28;20376;-64
2021/06/24 06:57:11;;;;;;;11.40;10.30;;;;;;;21.64;65.06;98012.53;8250184;28;20226;-64
2021/06/24 07:01:13;;;;;;;11.43;10.30;;;;;;;21.51;64.90;98013.78;8250075;28;20205;-64
2021/06/24 07:05:18;;;;;;;11.70;10.50;;;;;;;21.77;64.39;98016.72;8249829;28;20216;-64
2021/06/24 07:09:21;;;;;;;12.77;11.40;;;;;;;21.53;65.90;98012.66;8243768;28;20245;-64
2021/06/24 07:13:24;;;;;;;12.77;11.47;;;;;;;21.75;65.13;98021.31;8217007;29;20196;-64
2021/06/24 07:17:27;;;;;;;12.73;11.53;;;;;;;21.66;64.80;98017.69;8217341;29;20246;-64
2021/06/24 07:21:31;;;;;;;14.63;12.73;;;;;;;21.50;64.61;98025.28;8222899;28;20196;-63
2021/06/24 07:25:34;;;;;;;14.23;12.60;;;;;;;22.00;64.36;98023.38;8225212;29;20207;-63
2021/06/24 07:29:37;;;;;;;15.10;12.83;;;;;;;22.14;63.72;98011.59;8225239;29;20431;-63
2021/06/24 07:33:40;;;;;;;12.73;11.20;;;;;;;22.45;63.45;98012.28;8225093;29;20203;-64
2021/06/24 07:37:45;;;;;;;14.20;12.67;;;;;;;22.76;60.07;98008.59;8224738;29;20643;-64
2021/06/24 07:41:47;;;;;;;13.70;12.07;;;;;;;22.64;63.08;98011.41;8225075;29;20213;-64
2021/06/24 07:45:51;;;;;;;15.23;12.00;;;;;;;22.70;62.46;98014.44;8224934;29;20209;-63
2021/06/24 07:49:54;;;;;;;14.90;13.17;;;;;;;22.60;60.39;98007.38;8225273;29;20395;-63
2021/06/24 07:53:58;;;;;;;13.70;12.40;;;;;;;22.84;61.40;98008.69;8225241;29;20517;-64
2021/06/24 07:58:02;;;;;;;17.00;13.90;;;;;;;22.95;60.43;98000.59;8225192;29;20227;-63
2021/06/24 08:02:05;;;;;;;15.17;13.73;;;;;;;23.75;59.22;98008.78;8223929;29;20216;-64
2021/06/24 08:06:09;;;;;;;17.60;13.87;;;;;;;23.49;57.87;98005.22;8223668;29;20226;-64
2021/06/24 08:10:14;;;;;;;14.70;12.13;;;;;;;23.69;59.48;98003.28;8232772;28;20245;-64
2021/06/24 08:14:17;;;;;;;15.00;12.43;;;;;;;23.56;60.09;98001.00;8255205;28;20392;-63
2021/06/24 08:18:20;;;;;;;16.73;12.90;;;;;;;23.41;61.24;98003.31;8254891;28;20233;-63
2021/06/24 08:22:23;;;;;;;14.67;12.67;;;;;;;23.23;61.51;98004.09;8254754;28;20205;-63
2021/06/24 08:26:28;;;;;;;14.90;13.37;;;;;;;23.06;61.24;98004.91;8254614;28;20205;-63
2021/06/24 08:30:30;;;;;;;14.90;13.40;;;;;;;23.21;62.07;98000.78;8254242;28;20469;-63
2021/06/24 08:34:34;;;;;;;15.63;14.00;;;;;;;23.41;61.41;98003.31;8253203;28;20285;-67
2021/06/24 08:38:37;;;;;;;15.17;13.33;;;;;;;24.59;57.44;97993.47;8254250;28;20472;-66
2021/06/24 08:42:42;;;;;;;14.20;12.70;;;;;;;24.28;58.48;97998.38;8253442;28;20224;-65
2021/06/24 08:46:51;;;;;;;12.87;11.53;;;;;;;24.25;57.14;97999.50;8251593;28;20198;-67
2021/06/24 08:50:54;;;;;;;13.13;11.80;;;;;;;23.84;59.25;98001.81;8252885;28;20242;-66
2021/06/24 08:54:57;;;;;;;14.20;12.27;;;;;;;23.66;58.82;98006.22;8252991;28;20478;-67
2021/06/24 08:59:01;;;;;;;13.40;11.93;;;;;;;23.73;58.64;98005.47;8253120;28;20226;-67
2021/06/24 09:03:17;;;;;;;13.03;11.73;;;;;;;23.65;59.92;98000.09;8253026;28;20211;-66
2021/06/24 09:07:21;;;;;;;13.83;10.57;;;;;;;23.59;60.38;98008.63;8253012;28;20552;-66
2021/06/24 09:11:25;;;;;;;11.93;10.70;;;;;;;23.37;60.79;98008.06;8233942;28;20242;-67
2021/06/24 09:15:36;;;;;;;13.57;10.83;;;;;;;23.14;61.60;98004.16;8220657;29;20218;-66
2021/06/24 09:19:40;;;;;;;11.87;10.57;;;;;;;22.87;62.55;98004.94;8220553;29;20270;-66
2021/06/24 09:23:50;;;;;;;16.67;11.53;;;;;;;22.79;63.23;98010.94;8220608;29;20229;-67
2021/06/24 09:27:53;;;;;;;12.23;10.50;;;;;;;22.62;63.39;98010.72;8220538;29;20274;-67
2021/06/24 09:31:59;;;;;;;13.03;10.77;;;;;;;22.70;63.39;98017.09;8220481;29;20466;-66
2021/06/24 09:36:02;;;;;;;11.23;10.00;;;;;;;22.72;62.63;98023.06;8220070;29;20241;-67
2021/06/24 09:40:12;;;;;;;11.70;10.50;;;;;;;22.83;62.23;98022.88;8219688;29;20479;-68
2021/06/24 09:44:19;;;;;;;12.70;9.77;;;;;;;22.87;62.61;98029.53;8218646;28;20207;-67
2021/06/24 09:48:32;;;;;;;13.00;10.70;;;;;;;22.77;62.61;98029.56;8219395;29;20531;-68
2021/06/24 09:52:35;;;;;;;11.03;9.97;;;;;;;22.78;61.32;98030.41;8218915;29;20207;-69
2021/06/24 09:56:43;;;;;;;11.03;10.00;;;;;;;22.80;62.18;98033.72;8219044;29;20526;-69
2021/06/24 10:00:50;;;;;;;11.33;10.20;;;;;;;22.95;61.26;98036.72;8219008;29;20206;-69
2021/06/24 10:04:54;;;;;;;11.70;10.60;;;;;;;23.04;61.46;98038.53;8218671;29;20209;-68
2021/06/24 10:08:58;;;;;;;12.20;9.87;;;;;;;23.38;60.78;98036.16;8218804;29;20217;-69
2021/06/24 10:13:01;;;;;;;11.07;9.13;;;;;;;23.97;59.60;98043.72;8250634;28;20250;-69
2021/06/24 10:17:05;;;;;;;10.13;9.17;;;;;;;24.22;59.32;98043.94;8250745;28;20229;-68
2021/06/24 10:21:10;;;;;;;10.03;8.87;;;;;;;24.09;58.25;98050.47;8250303;28;20209;-69
2021/06/24 10:25:15;;;;;;;11.30;9.50;;;;;;;23.84;59.63;98046.75;8250614;28;20352;-69
2021/06/24 10:29:19;;;;;;;12.43;9.77;;;;;;;23.61;58.96;98055.06;8250612;28;20202;-69
2021/06/24 10:33:22;;;;;;;16.77;8.40;;;;;;;23.47;58.56;98052.91;8250547;28;20213;-65
2021/06/24 10:37:28;;;;;;;9.57;8.60;;;;;;;23.52;58.72;98053.31;8250636;28;20233;-65
2021/06/24 10:42:14;;;;;;;9.47;8.50;;;;;;;23.79;57.57;98060.41;8250944;28;20209;-64
2021/06/24 10:46:20;;;;;;;8.77;7.87;;;;;;;24.77;55.11;98057.78;8206011;28;20194;-64
2021/06/24 10:50:57;;;;;;;9.13;7.87;;;;;;;25.47;54.07;98058.66;8250506;28;20206;-64
2021/06/24 10:55:01;;;;;;;10.17;8.50;;;;;;;25.66;53.58;98039.81;8250310;28;20205;-64
2021/06/24 10:59:25;;;;;;;9.77;8.53;;;;;;;26.17;51.98;98041.59;8250087;28;20232;-64
2021/06/24 11:03:40;;;;;;;9.33;8.07;;;;;;;26.58;50.43;98039.75;8250294;28;20352;-66
2021/06/24 11:07:43;;;;;;;10.53;8.50;;;;;;;26.23;51.66;98033.78;8249970;28;20232;-67
2021/06/24 11:11:48;;;;;;;13.80;8.60;;;;;;;26.12;51.73;98034.09;8228069;28;20243;-67
2021/06/24 11:15:56;;;;;;;9.87;8.50;;;;;;;26.83;49.75;98024.63;8218545;29;20209;-67
2021/06/24 11:20:12;;;;;;;8.83;7.93;;;;;;;27.25;47.49;98020.84;8218503;29;20238;-67
2021/06/24 11:24:18;;;;;;;7.53;6.83;;;;;;;27.83;47.53;98010.72;8218277;29;20199;-67
2021/06/24 11:28:42;;;;;;;8.03;6.80;;;;;;;27.75;46.61;98005.44;8218603;29;20203;-67
2021/06/24 11:32:50;;;;;;;10.00;7.77;;;;;;;26.48;50.05;98012.53;8219125;29;20518;-66
2021/06/24 11:36:54;;;;;;;7.90;7.10;;;;;;;25.99;50.73;98007.22;8218725;29;20367;-67
2021/06/24 11:40:59;;;;;;;8.43;7.53;;;;;;;26.12;51.18;98003.13;8218626;29;20209;-67
2021/06/24 11:45:05;;;;;;;8.80;7.40;;;;;;;25.77;51.70;98001.56;8218603;29;20434;-67
2021/06/24 11:49:15;;;;;;;8.30;7.00;;;;;;;27.14;48.57;97999.13;8218561;29;20215;-67
2021/06/24 12:06:26;;;;;;;7.70;6.90;;;;;;;27.06;49.56;98008.78;8190748;28;20225;-67
2021/06/24 12:10:29;;;;;;;6.97;6.30;;;;;;;28.12;46.53;98003.03;8235625;28;20264;-69
2021/06/24 12:14:35;;;;;;;7.10;6.03;;;;;;;28.03;47.40;98013.75;8255242;28;20261;-67
2021/06/24 12:18:40;;;;;;;7.87;6.77;;;;;;;26.79;49.06;98011.84;8255353;28;20240;-67
2021/06/24 12:22:49;;;;;;;6.93;6.23;;;;;;;27.50;48.03;98008.25;8255821;28;20204;-67
2021/06/24 12:26:52;;;;;;;8.00;6.60;;;;;;;26.97;49.05;98004.47;8256190;28;20215;-67
2021/06/24 12:30:55;;;;;;;7.97;5.80;;;;;;;27.18;48.91;98005.72;8255739;28;20211;-67
2021/06/24 12:35:00;;;;;;;7.03;5.77;;;;;;;28.05;45.32;98010.94;8255364;28;20486;-67
2021/06/24 12:39:03;;;;;;;8.90;6.07;;;;;;;26.89;48.29;98002.69;8254807;28;20442;-67
2021/06/24 12:43:08;;;;;;;6.23;5.63;;;;;;;27.69;45.04;97992.88;8254837;28;20207;-67
2021/06/24 12:47:39;;;;;;;6.03;5.53;;;;;;;27.92;45.68;97982.25;8254536;28;20383;-67
2021/06/24 12:51:44;;;;;;;6.57;5.63;;;;;;;27.47;46.20;97983.84;8253702;28;20219;-67
2021/06/24 12:55:48;;;;;;;8.63;5.43;;;;;;;26.82;46.40;97983.09;8253688;28;20211;-68
2021/06/24 12:59:51;;;;;;;5.93;5.10;;;;;;;26.59;47.86;97974.19;8253756;28;20240;-67
2021/06/24 13:03:55;;;;;;;5.43;4.87;;;;;;;27.01;46.52;97978.41;8253506;28;20203;-66
2021/06/24 13:08:02;;;;;;;7.10;5.67;;;;;;;26.38;48.64;97990.66;8253086;28;20227;-67
2021/06/24 13:12:07;;;;;;;7.27;5.47;;;;;;;25.79;49.36;97988.97;8252944;28;20442;-67
2021/06/24 13:16:24;;;;;;;8.97;5.30;;;;;;;26.17;49.70;97968.09;8251930;28;20205;-65
2021/06/24 13:20:28;;;;;;;7.17;5.70;;;;;;;26.61;48.29;97957.09;8253345;28;20294;-65
2021/06/24 13:24:38;;;;;;;7.03;5.40;;;;;;;27.36;47.31;97955.00;8253361;28;20271;-65
2021/06/24 13:28:41;;;;;;;5.20;4.70;;;;;;;27.84;46.09;97967.13;8253143;28;20207;-65
2021/06/24 13:32:45;;;;;;;7.40;4.67;;;;;;;27.93;46.45;97967.09;8253082;28;20306;-65
2021/06/24 13:36:48;;;;;;;7.53;4.70;;;;;;;27.68;45.44;97969.91;8252996;28;20201;-65
2021/06/24 13:40:52;;;;;;;5.43;4.67;;;;;;;27.97;46.55;97963.91;8252382;28;20232;-65
2021/06/24 13:44:55;;;;;;;5.30;4.63;;;;;;;28.30;45.00;97960.97;8252066;28;20211;-65
2021/06/24 13:48:58;;;;;;;5.27;4.73;;;;;;;28.39;44.00;97951.06;8251460;28;20216;-66
2021/06/24 13:53:01;;;;;;;7.70;4.53;;;;;;;28.49;44.92;97948.13;8251800;28;20205;-66
2021/06/24 13:57:07;;;;;;;7.43;4.10;;;;;;;28.20;45.48;97939.91;8251494;28;20254;-66
2021/06/24 14:01:10;;;;;;;4.80;4.13;;;;;;;28.42;44.27;97942.69;8251910;28;20237;-65
2021/06/24 14:05:13;;;;;;;4.97;4.50;;;;;;;28.03;44.30;97938.44;8251316;28;20233;-66
2021/06/24 14:09:17;;;;;;;4.70;4.30;;;;;;;28.29;44.08;97940.66;8251188;28;20210;-66
2021/06/24 14:13:22;;;;;;;4.90;4.40;;;;;;;28.23;45.14;97950.19;8251319;28;20212;-66
2021/06/24 14:17:26;;;;;;;4.57;4.17;;;;;;;28.23;44.03;97952.84;8219669;29;20209;-66
2021/06/24 14:21:29;;;;;;;5.67;4.40;;;;;;;28.28;44.24;97961.13;8243102;28;20229;-66
2021/06/24 14:25:33;;;;;;;6.17;4.40;;;;;;;28.16;44.94;97959.09;8250152;28;20196;-66
2021/06/24 14:29:38;;;;;;;6.97;4.20;;;;;;;28.30;43.57;97960.13;8249501;28;20324;-66
2021/06/24 14:33:41;;;;;;;6.87;4.40;;;;;;;28.50;44.04;97958.59;8250279;28;20303;-66
2021/06/24 14:37:43;;;;;;;5.80;4.23;;;;;;;28.31;44.39;97943.13;8250751;28;20204;-66
2021/06/24 14:41:47;;;;;;;6.13;4.20;;;;;;;27.93;44.20;97944.00;8250816;28;20258;-66
2021/06/24 14:45:51;;;;;;;8.00;4.40;;;;;;;27.94;44.10;97936.84;8250358;28;20213;-65
2021/06/24 14:49:54;;;;;;;4.97;4.27;;;;;;;27.84;45.02;97940.53;8250017;28;20217;-65
2021/06/24 14:53:57;;;;;;;5.73;4.20;;;;;;;27.69;44.85;97940.47;8250432;28;20437;-65
2021/06/24 14:57:59;;;;;;;5.53;4.20;;;;;;;27.45;45.43;97941.47;8250330;28;20215;-65
2021/06/24 15:02:04;;;;;;;6.53;4.73;;;;;;;27.57;44.51;97949.88;8250285;28;20209;-65
2021/06/24 15:06:07;;;;;;;6.37;4.70;;;;;;;26.86;45.46;97951.72;8249875;28;20236;-66
2021/06/24 15:10:11;;;;;;;7.90;5.00;;;;;;;27.13;45.79;97955.78;8250248;28;20239;-65
2021/06/24 15:14:14;;;;;;;6.37;4.83;;;;;;;26.57;46.66;97968.22;8250187;28;20215;-65
2021/06/24 15:18:18;;;;;;;6.00;4.87;;;;;;;26.76;46.26;97975.81;8249733;28;20378;-66
2021/06/24 15:22:21;;;;;;;5.07;4.20;;;;;;;26.37;47.11;97978.34;8250187;28;20206;-66
2021/06/24 15:26:24;;;;;;;7.03;4.60;;;;;;;26.33;46.96;97964.59;8249990;28;20204;-65
2021/06/24 15:30:31;;;;;;;8.90;5.00;;;;;;;26.06;47.61;97977.22;8249566;28;20275;-65
2021/06/24 15:34:36;;;;;;;7.80;4.60;;;;;;;25.99;48.01;97976.25;8243657;28;20235;-66
2021/06/24 15:38:39;;;;;;;7.80;4.83;;;;;;;25.67;48.35;97971.72;8234682;28;20230;-66
2021/06/24 15:42:44;;;;;;;13.97;5.10;;;;;;;25.56;49.57;97956.94;8238080;28;20196;-65
2021/06/24 15:46:47;;;;;;;7.00;5.10;;;;;;;25.45;49.30;97954.59;8238696;28;20273;-66
2021/06/24 15:50:51;;;;;;;10.03;4.50;;;;;;;25.54;49.68;97957.09;8238502;28;20228;-66
2021/06/24 15:54:54;;;;;;;8.90;5.00;;;;;;;25.37;50.37;97960.72;8238313;28;20490;-66
2021/06/24 15:58:56;;;;;;;5.60;4.80;;;;;;;25.30;50.55;97954.41;8252710;28;20485;-66
2021/06/24 16:02:59;;;;;;;8.33;5.90;;;;;;;25.19;51.08;97952.88;8254341;28;20199;-66
2021/06/24 16:07:04;;;;;;;7.07;5.20;;;;;;;25.04;50.97;97967.72;8253764;28;20220;-66
2021/06/24 16:11:07;;;;;;;7.80;5.90;;;;;;;24.54;52.67;97982.50;8253684;28;20239;-65
2021/06/24 16:15:11;;;;;;;5.43;3.73;;;;;;;23.84;51.23;98033.53;8253863;28;20198;-66
2021/06/24 16:19:14;;;;;;;8.67;3.47;;;;;;;23.15;54.74;98016.38;8253537;28;20231;-66
2021/06/24 16:23:18;;;;;;;7.77;3.37;;;;;;;22.97;55.64;97979.31;8253015;28;20266;-65
2021/06/24 16:27:21;;;;;;;6.47;3.13;;;;;;;23.15;55.29;97952.97;8252988;28;20277;-66
2021/06/24 16:31:24;;;;;;;5.33;2.43;;;;;;;23.14;55.07;97951.34;8252757;28;20199;-65
2021/06/24 16:35:28;;;;;;;7.63;2.67;;;;;;;23.09;56.08;97945.66;8252651;28;20199;-65
2021/06/24 16:39:33;;;;;;;7.27;2.97;;;;;;;;;;8252984;28;20325;-66
2021/06/24 16:43:36;;;;;;;3.47;2.40;;;;;;;22.87;55.50;97946.88;8252523;28;20195;-66
2021/06/24 16:47:39;;;;;;;7.27;2.30;;;;;;;22.95;56.44;97955.69;8250502;28;20202;-67
2021/06/24 16:51:44;;;;;;;6.20;2.33;;;;;;;23.05;55.55;97955.69;8251939;28;20209;-66
2021/06/24 16:55:48;;;;;;;7.10;2.37;;;;;;;22.87;55.54;97939.78;8252422;28;20493;-66
2021/06/24 16:59:52;;;;;;;3.53;1.80;;;;;;;23.05;54.83;97920.53;8251776;28;20229;-66
2021/06/24 17:03:54;;;;;;;4.03;1.63;;;;;;;22.90;54.25;97918.34;8251836;28;20213;-65
2021/06/24 17:07:57;;;;;;;6.33;2.00;;;;;;;23.12;55.20;97913.69;8252026;28;20222;-66
2021/06/24 17:12:01;;;;;;;6.33;1.70;;;;;;;23.00;54.47;97920.94;8247518;28;20315;-66
2021/06/24 17:16:04;;;;;;;4.60;1.83;;;;;;;23.10;54.80;97928.84;8250265;28;20207;-66
2021/06/24 17:20:09;;;;;;;7.50;1.90;;;;;;;23.08;54.13;97936.09;8249950;28;20219;-66
2021/06/24 17:24:12;;;;;;;13.57;2.70;;;;;;;22.99;55.79;97948.31;8249838;28;20205;-65
2021/06/24 17:28:16;;;;;;;7.43;2.17;;;;;;;22.99;54.99;97946.50;8249585;28;20213;-65
2021/06/24 17:32:19;;;;;;;8.07;1.97;;;;;;;22.89;55.19;97937.81;8251197;28;20213;-65
2021/06/24 17:36:22;;;;;;;8.20;1.97;;;;;;;22.81;54.74;97929.81;8249664;28;20220;-65
2021/06/24 17:40:25;;;;;;;11.47;2.10;;;;;;;22.93;56.58;97923.34;8249991;28;20221;-65
2021/06/24 17:44:30;;;;;;;13.13;2.50;;;;;;;22.89;56.20;97929.91;8250435;28;20202;-64
2021/06/24 17:48:33;;;;;;;7.80;2.67;;;;;;;22.81;57.16;97933.25;8250456;28;20396;-65
2021/06/24 17:52:36;;;;;;;7.27;1.93;;;;;;;22.88;57.09;97956.44;8250156;28;20274;-65
2021/06/24 17:56:39;;;;;;;6.80;2.03;;;;;;;22.80;57.55;97960.63;8249957;28;20202;-64
2021/06/24 18:00:43;;;;;;;5.63;1.80;;;;;;;22.76;56.79;97961.91;8250509;28;20232;-65
2021/06/24 18:04:46;;;;;;;3.43;1.70;;;;;;;22.35;55.52;97942.88;8249981;28;20396;-65
2021/06/24 18:08:49;;;;;;;5.27;1.70;;;;;;;22.48;55.63;97955.75;8248335;28;20491;-67
2021/06/24 18:12:52;;;;;;;4.90;1.53;;;;;;;22.42;57.38;97958.97;8215429;28;1102262;-64
2021/06/24 18:16:57;;;;;;;6.33;1.90;;;;;;;22.51;57.63;97967.84;8250477;28;20443;-66
2021/06/24 18:21:00;;;;;;;9.33;2.10;;;;;;;22.50;57.88;97960.88;8243559;28;20230;-64
2021/06/24 18:25:03;;;;;;;6.67;2.00;;;;;;;22.42;57.73;97951.03;8252650;28;20220;-64
2021/06/24 18:29:06;;;;;;;4.53;2.00;;;;;;;22.21;57.45;97962.56;8241836;28;20493;-64
2021/06/24 18:33:10;;;;;;;4.83;1.80;;;;;;;22.30;57.80;97950.38;8240619;28;20393;-64
2021/06/24 18:37:13;;;;;;;13.27;2.00;;;;;;;22.05;58.77;97949.16;8238930;28;20195;-65
2021/06/24 18:41:17;;;;;;;6.33;1.97;;;;;;;22.05;58.04;97949.16;8244638;28;20418;-65
2021/06/24 18:45:20;;;;;;;5.53;1.80;;;;;;;22.18;57.91;97959.38;8248769;28;20202;-65
2021/06/24 18:49:25;;;;;;;7.03;1.73;;;;;;;22.00;56.86;97977.75;8244939;28;20205;-65
2021/06/24 18:53:28;;;;;;;4.90;2.13;;;;;;;22.00;57.75;97977.75;8245496;28;20202;-66
2021/06/24 18:57:31;;;;;;;3.33;1.83;;;;;;;21.97;58.00;97978.88;8245651;28;20207;-65
2021/06/24 19:01:34;;;;;;;3.63;1.70;;;;;;;21.91;57.78;97979.41;8249583;28;20540;-65
2021/06/24 19:05:39;;;;;;;9.10;2.43;;;;;;;21.96;58.27;97989.53;8248965;28;20222;-65
2021/06/24 19:09:42;;;;;;;7.93;2.07;;;;;;;22.00;57.41;98001.47;8234983;28;20249;-65
2021/06/24 19:13:45;;;;;;;7.73;1.87;;;;;;;21.61;57.58;98006.72;8212495;29;20230;-68